createdAt,value
2019-05-28T00:00:08.055Z,5.03
2019-05-28T00:02:36.811Z,4.03
2019-05-28T00:05:08.693Z,3.97
2019-05-28T00:07:37.720Z,4.00
2019-05-28T00:10:08.403Z,4.30
2019-05-28T00:12:37.569Z,4.43
2019-05-28T00:15:07.338Z,5.13
2019-05-28T00:17:36.071Z,5.20
2019-05-28T00:20:08.362Z,4.53
2019-05-28T00:22:37.441Z,4.20
2019-05-28T00:25:07.382Z,4.57
2019-05-28T00:27:36.421Z,4.63
2019-05-28T00:30:19.043Z,4.87
2019-05-28T00:32:38.345Z,5.43
2019-05-28T00:35:08.448Z,5.17
2019-05-28T00:37:37.366Z,4.30
2019-05-28T00:40:06.309Z,4.07
2019-05-28T00:42:35.979Z,4.20
2019-05-28T00:45:07.687Z,5.30
2019-05-28T00:47:36.435Z,5.03
2019-05-28T00:50:08.871Z,5.53
2019-05-28T00:52:37.779Z,6.00
2019-05-28T00:55:08.802Z,5.97
2019-05-28T00:57:43.069Z,6.03
2019-05-28T01:00:12.624Z,5.77
2019-05-28T01:02:41.824Z,5.83
2019-05-28T01:05:11.102Z,6.03
2019-05-28T01:07:39.990Z,6.80
2019-05-28T01:10:10.843Z,6.60
2019-05-28T01:12:39.626Z,6.97
2019-05-28T01:15:09.435Z,7.47
2019-05-28T01:17:38.460Z,6.87
2019-05-28T01:20:08.001Z,6.87
2019-05-28T01:22:37.057Z,5.90
2019-05-28T01:25:07.112Z,6.87
2019-05-28T01:27:35.891Z,6.70
2019-05-28T01:30:06.728Z,6.00
2019-05-28T01:32:35.516Z,6.50
2019-05-28T01:35:08.344Z,6.00
2019-05-28T01:37:37.241Z,5.97
2019-05-28T01:40:07.766Z,7.07
2019-05-28T01:42:36.545Z,6.07
2019-05-28T01:45:06.730Z,5.60
2019-05-28T01:47:35.544Z,5.83
2019-05-28T01:50:05.957Z,5.17
2019-05-28T01:52:34.823Z,4.40
2019-05-28T01:55:04.873Z,5.07
2019-05-28T01:57:33.683Z,5.40
2019-05-28T02:00:02.594Z,5.10
2019-05-28T02:02:31.374Z,6.00
2019-05-28T02:05:00.275Z,4.77
2019-05-28T02:07:29.160Z,5.10
2019-05-28T02:09:58.085Z,7.43
2019-05-28T02:12:27.769Z,5.13
2019-05-28T02:14:56.547Z,5.00
2019-05-28T02:17:25.285Z,5.63
2019-05-28T02:19:54.279Z,5.53
2019-05-28T02:22:23.160Z,5.57
2019-05-28T02:24:52.055Z,4.60
2019-05-28T02:27:21.219Z,4.33
2019-05-28T02:29:50.247Z,5.77
2019-05-28T02:32:19.140Z,4.97
2019-05-28T02:34:48.000Z,4.53
2019-05-28T02:37:17.136Z,5.73
2019-05-28T02:39:46.116Z,5.20
2019-05-28T02:42:16.326Z,5.03
2019-05-28T02:44:45.200Z,5.13
2019-05-28T02:47:14.294Z,5.10
2019-05-28T02:49:43.224Z,5.40
2019-05-28T02:52:13.318Z,5.27
2019-05-28T02:54:42.407Z,5.97
2019-05-28T02:57:11.580Z,6.50
2019-05-28T02:59:41.298Z,6.10
2019-05-28T03:02:10.751Z,5.57
2019-05-28T03:04:41.085Z,6.00
2019-05-28T03:07:10.759Z,6.30
2019-05-28T03:09:41.735Z,5.97
2019-05-28T03:12:10.591Z,7.07
2019-05-28T03:14:39.378Z,8.43
2019-05-28T03:17:09.068Z,6.20
2019-05-28T03:19:39.145Z,6.20
2019-05-28T03:22:10.700Z,6.73
2019-05-28T03:24:42.254Z,7.37
2019-05-28T03:27:11.045Z,7.00
2019-05-28T03:29:39.939Z,5.50
2019-05-28T03:32:09.802Z,6.73
2019-05-28T03:34:41.878Z,5.50
2019-05-28T03:37:10.563Z,5.80
2019-05-28T03:39:41.716Z,6.30
2019-05-28T03:42:10.606Z,6.33
2019-05-28T03:44:40.433Z,5.63
2019-05-28T03:47:09.350Z,5.53
2019-05-28T03:49:38.156Z,5.90
2019-05-28T03:52:07.116Z,5.20
2019-05-28T03:54:35.970Z,5.00
2019-05-28T03:57:04.749Z,5.43
2019-05-28T03:59:33.589Z,5.47
2019-05-28T04:02:02.619Z,5.73
2019-05-28T04:04:31.611Z,5.83
2019-05-28T04:07:00.443Z,6.17
2019-05-28T04:09:29.238Z,6.40
2019-05-28T04:11:58.061Z,5.73
2019-05-28T04:14:26.803Z,6.00
2019-05-28T04:16:55.605Z,5.90
2019-05-28T04:19:24.532Z,6.33
2019-05-28T04:21:53.334Z,5.43
2019-05-28T04:24:22.179Z,5.67
2019-05-28T04:26:50.969Z,5.63
2019-05-28T04:29:19.745Z,5.70
2019-05-28T04:31:48.584Z,5.20
2019-05-28T04:34:17.473Z,5.40
2019-05-28T04:36:46.508Z,5.43
2019-05-28T04:39:15.666Z,6.07
2019-05-28T04:41:44.522Z,5.90
2019-05-28T04:44:13.702Z,6.33
2019-05-28T04:46:42.554Z,6.27
2019-05-28T04:49:11.302Z,5.17
2019-05-28T04:51:40.128Z,5.07
2019-05-28T04:54:08.995Z,5.23
2019-05-28T04:56:37.892Z,5.53
2019-05-28T04:59:06.794Z,6.60
2019-05-28T05:01:35.592Z,6.63
2019-05-28T05:04:04.433Z,7.13
2019-05-28T05:06:33.259Z,7.97
2019-05-28T05:09:02.016Z,7.60
2019-05-28T05:11:30.841Z,7.13
2019-05-28T05:13:59.643Z,7.33
2019-05-28T05:16:28.815Z,7.03
2019-05-28T05:18:57.713Z,6.73
2019-05-28T05:21:26.528Z,6.87
2019-05-28T05:23:55.416Z,6.93
2019-05-28T05:26:24.311Z,7.00
2019-05-28T05:28:53.171Z,7.47
2019-05-28T05:31:22.092Z,7.27
2019-05-28T05:33:50.859Z,7.10
2019-05-28T05:36:19.981Z,6.70
2019-05-28T05:38:49.177Z,7.80
2019-05-28T05:41:19.011Z,6.17
2019-05-28T05:43:48.398Z,7.40
2019-05-28T05:46:17.286Z,7.80
2019-05-28T05:48:45.969Z,7.67
2019-05-28T05:51:14.761Z,7.73
2019-05-28T05:53:43.609Z,7.50
2019-05-28T05:56:12.649Z,8.30
2019-05-28T05:58:41.519Z,9.00
2019-05-28T06:01:10.469Z,8.00
2019-05-28T06:03:41.066Z,8.33
2019-05-28T06:06:09.869Z,9.43
2019-05-28T06:08:38.585Z,7.70
2019-05-28T06:11:07.407Z,8.93
2019-05-28T06:13:36.235Z,9.87
2019-05-28T06:19:22.555Z,8.97
2019-05-28T06:21:51.650Z,9.40
2019-05-28T06:24:20.500Z,8.60
2019-05-28T06:26:49.393Z,7.97
2019-05-28T06:29:18.361Z,7.80
2019-05-28T06:31:47.842Z,8.23
2019-05-28T06:34:16.698Z,8.13
2019-05-28T06:36:45.472Z,8.70
2019-05-28T06:39:14.261Z,8.87
2019-05-28T06:41:43.061Z,7.80
2019-05-28T06:44:11.807Z,8.93
2019-05-28T07:05:13.280Z,9.13
2019-05-28T07:07:42.122Z,9.17
2019-05-28T07:11:07.348Z,9.87
2019-05-28T07:13:36.664Z,8.67
2019-05-28T07:18:41.425Z,9.97
2019-05-28T07:21:10.209Z,8.70
2019-05-28T07:23:39.017Z,9.83
2019-05-28T07:26:07.789Z,8.07
2019-05-28T07:28:37.738Z,8.93
2019-05-28T07:31:06.484Z,9.93
2019-05-28T07:33:35.894Z,9.00
2019-05-28T07:36:04.778Z,8.87
2019-05-28T07:38:33.509Z,9.43
2019-05-28T07:41:02.532Z,9.03
2019-05-28T07:43:31.501Z,9.23
2019-05-28T07:46:00.284Z,9.67
2019-05-28T07:48:29.140Z,10.37
2019-05-28T07:50:58.558Z,11.70
2019-05-28T07:53:39.491Z,8.47
2019-05-28T07:55:59.038Z,9.73
2019-05-28T07:58:28.127Z,9.90
2019-05-28T08:00:56.882Z,9.67
2019-05-28T08:03:27.010Z,9.80
2019-05-28T08:05:55.722Z,10.43
2019-05-28T08:08:25.157Z,10.50
2019-05-28T08:10:54.193Z,11.07
2019-05-28T08:13:39.184Z,9.43
2019-05-28T08:15:53.440Z,11.33
2019-05-28T08:18:22.545Z,11.73
2019-05-28T08:20:51.810Z,10.90
2019-05-28T08:23:21.017Z,10.83
2019-05-28T08:25:50.129Z,11.53
2019-05-28T08:28:20.502Z,11.30
2019-05-28T08:30:50.070Z,10.00
2019-05-28T08:33:19.379Z,10.90
2019-05-28T08:35:51.461Z,9.60
2019-05-28T08:38:18.587Z,9.80
2019-05-28T08:40:47.483Z,9.07
2019-05-28T08:43:16.585Z,10.20
2019-05-28T08:45:45.477Z,8.20
2019-05-28T08:48:14.783Z,9.43
2019-05-28T08:50:43.661Z,7.97
2019-05-28T08:53:12.575Z,8.30
2019-05-28T08:55:41.578Z,8.07
2019-05-28T08:58:11.163Z,7.30
2019-05-28T09:00:42.069Z,6.83
2019-05-28T09:03:11.839Z,4.47
2019-05-28T09:05:41.116Z,5.77
2019-05-28T09:08:10.182Z,6.30
2019-05-28T09:10:39.029Z,8.30
2019-05-28T09:13:07.735Z,7.70
2019-05-28T09:15:36.723Z,9.80
2019-05-28T09:18:05.675Z,8.80
2019-05-28T09:20:34.568Z,8.73
2019-05-28T09:23:03.353Z,10.87
2019-05-28T09:25:32.094Z,11.73
2019-05-28T09:28:01.113Z,10.60
2019-05-28T09:30:30.113Z,11.67
2019-05-28T09:32:59.007Z,11.27
2019-05-28T09:35:43.508Z,12.00
2019-05-28T09:37:58.352Z,11.33
2019-05-28T09:40:46.000Z,9.27
2019-05-28T09:43:02.110Z,8.73
2019-05-28T09:45:31.641Z,9.13
2019-05-28T09:48:01.289Z,9.00
2019-05-28T09:50:31.344Z,8.87
2019-05-28T09:53:01.392Z,7.83
2019-05-28T09:55:31.893Z,6.47
2019-05-28T09:58:02.895Z,6.20
2019-05-28T10:00:34.966Z,6.20
2019-05-28T10:03:03.981Z,5.37
2019-05-28T10:05:33.158Z,6.40
2019-05-28T10:08:02.052Z,6.33
2019-05-28T10:10:30.912Z,4.93
2019-05-28T10:16:29.121Z,5.50
2019-05-28T10:18:58.076Z,5.47
2019-05-28T10:21:27.072Z,8.80
2019-05-28T10:23:56.029Z,4.83
2019-05-28T10:26:27.333Z,5.03
2019-05-28T10:28:56.288Z,3.97
2019-05-28T10:31:27.822Z,3.83
2019-05-28T10:33:57.722Z,4.77
2019-05-28T10:36:35.766Z,3.80
2019-05-28T10:38:58.912Z,4.00
2019-05-28T10:41:27.899Z,4.20
2019-05-28T10:43:57.011Z,4.07
2019-05-28T10:46:27.487Z,4.93
2019-05-28T10:48:59.119Z,4.80
2019-05-28T10:51:28.262Z,5.90
2019-05-28T10:54:00.010Z,8.60
2019-05-28T10:56:30.467Z,5.00
2019-05-28T10:59:00.990Z,5.07
2019-05-28T11:01:30.090Z,4.47
2019-05-28T11:03:59.196Z,5.90
2019-05-28T11:06:28.384Z,5.83
2019-05-28T11:08:57.787Z,6.70
2019-05-28T11:11:26.895Z,4.90
2019-05-28T11:13:56.937Z,5.07
2019-05-28T11:16:25.864Z,4.90
2019-05-28T11:18:54.784Z,4.83
2019-05-28T11:21:26.314Z,4.77
2019-05-28T11:23:55.257Z,4.37
2019-05-28T11:26:25.658Z,3.80
2019-05-28T11:29:13.024Z,3.50
2019-05-28T11:31:43.251Z,4.40
2019-05-28T11:34:12.828Z,6.33
2019-05-28T11:36:41.710Z,6.67
2019-05-28T11:39:11.216Z,7.33
2019-05-28T11:45:21.663Z,8.10
2019-05-28T11:48:03.574Z,8.37
2019-05-28T11:50:36.892Z,12.97
2019-05-28T11:53:54.838Z,12.47
2019-05-28T11:56:23.840Z,13.30
2019-05-28T11:58:52.706Z,13.80
2019-05-28T12:01:33.744Z,16.47
2019-05-28T12:03:52.346Z,13.97
2019-05-28T12:06:21.451Z,12.53
2019-05-28T12:17:02.671Z,10.53
2019-05-28T12:22:11.535Z,7.17
2019-05-28T12:24:40.255Z,6.90
2019-05-28T12:27:09.085Z,6.20
2019-05-28T12:29:51.057Z,5.50
2019-05-28T12:32:09.461Z,4.50
2019-05-28T12:34:39.245Z,5.37
2019-05-28T12:37:08.126Z,3.63
2019-05-28T12:39:37.463Z,3.63
2019-05-28T12:42:07.389Z,4.10
2019-05-28T12:44:42.333Z,3.87
2019-05-28T12:47:07.218Z,4.30
2019-05-28T12:49:36.090Z,3.70
2019-05-28T12:52:05.234Z,6.90
2019-05-28T12:54:34.040Z,3.20
2019-05-28T12:57:02.966Z,2.33
2019-05-28T12:59:31.848Z,3.00
2019-05-28T13:02:00.732Z,2.90
2019-05-28T13:04:29.638Z,3.10
2019-05-28T13:06:58.508Z,2.37
2019-05-28T13:09:27.446Z,2.70
2019-05-28T13:11:56.274Z,2.27
2019-05-28T13:14:25.115Z,3.57
2019-05-28T13:16:54.085Z,3.10
2019-05-28T13:19:22.870Z,3.20
2019-05-28T13:21:52.180Z,1.50
2019-05-28T13:24:21.000Z,2.83
2019-05-28T13:26:49.893Z,4.00
2019-05-28T13:29:18.642Z,3.47
2019-05-28T13:31:47.721Z,2.20
2019-05-28T13:34:16.753Z,2.10
2019-05-28T13:36:45.629Z,2.57
2019-05-28T13:39:14.670Z,2.70
2019-05-28T13:41:43.664Z,2.47
2019-05-28T13:44:12.552Z,1.90
2019-05-28T13:50:10.591Z,2.60
2019-05-28T13:59:25.147Z,3.07
2019-05-28T14:01:54.042Z,2.63
2019-05-28T14:08:10.275Z,2.23
2019-05-28T14:10:39.339Z,1.90
2019-05-28T14:13:08.121Z,2.37
2019-05-28T14:15:37.611Z,2.43
2019-05-28T14:18:07.793Z,1.90
2019-05-28T14:23:08.146Z,1.87
2019-05-28T14:25:37.246Z,2.80
2019-05-28T14:27:04.481Z,3.30
2019-05-28T14:28:06.470Z,4.33
2019-05-28T14:30:35.620Z,3.30
2019-05-28T14:33:05.316Z,2.43
2019-05-28T14:35:34.039Z,2.53
2019-05-28T14:38:03.122Z,2.60
2019-05-28T14:40:32.621Z,2.30
2019-05-28T14:43:02.167Z,2.13
2019-05-28T14:45:31.023Z,2.67
2019-05-28T14:47:59.880Z,3.97
2019-05-28T14:50:31.087Z,2.70
2019-05-28T14:52:59.398Z,1.87
2019-05-28T14:55:28.222Z,2.20
2019-05-28T14:57:57.190Z,2.50
2019-05-28T15:00:26.210Z,2.70
2019-05-28T15:02:55.067Z,2.33
2019-05-28T15:05:24.000Z,2.60
2019-05-28T15:07:53.915Z,2.77
2019-05-28T15:10:23.390Z,2.50
2019-05-28T15:12:52.199Z,3.03
2019-05-28T15:15:35.452Z,2.30
2019-05-28T15:17:51.701Z,2.87
2019-05-28T15:20:20.581Z,2.60
2019-05-28T15:22:49.737Z,2.70
2019-05-28T15:25:18.580Z,2.50
2019-05-28T15:27:48.629Z,2.47
2019-05-28T15:30:19.469Z,2.20
2019-05-28T15:32:48.385Z,2.20
2019-05-28T15:35:19.578Z,2.20
2019-05-28T15:37:48.412Z,2.20
2019-05-28T15:40:18.840Z,1.87
2019-05-28T15:42:47.819Z,2.10
2019-05-28T15:45:18.012Z,2.40
2019-05-28T15:47:47.037Z,3.00
2019-05-28T15:50:16.552Z,2.50
2019-05-28T15:52:45.658Z,2.37
2019-05-28T15:55:15.387Z,2.77
2019-05-28T15:57:44.253Z,3.57
2019-05-28T16:00:19.078Z,2.77
2019-05-28T16:02:47.938Z,2.47
2019-05-28T16:05:17.061Z,2.60
2019-05-28T16:07:45.778Z,2.40
2019-05-28T16:10:14.797Z,2.70
2019-05-28T16:12:43.545Z,2.57
2019-05-28T16:15:13.113Z,2.67
2019-05-28T16:17:42.026Z,2.27
2019-05-28T16:20:11.409Z,2.37
2019-05-28T16:22:43.115Z,2.23
2019-05-28T16:25:12.490Z,2.77
2019-05-28T16:27:41.389Z,2.70
2019-05-28T16:30:12.687Z,2.73
2019-05-28T16:32:41.691Z,3.13
2019-05-28T16:35:11.242Z,3.03
2019-05-28T16:37:40.038Z,3.47
2019-05-28T16:40:15.784Z,3.73
2019-05-28T16:42:39.768Z,3.63
2019-05-28T16:45:09.682Z,3.73
2019-05-28T16:47:38.560Z,3.83
2019-05-28T16:50:09.072Z,3.83
2019-05-28T16:52:38.205Z,4.37
2019-05-28T16:55:07.638Z,4.37
2019-05-28T16:57:36.805Z,5.17
2019-05-28T17:00:09.985Z,3.90
2019-05-28T17:02:39.088Z,3.87
2019-05-28T17:05:09.214Z,4.10
2019-05-28T17:07:38.209Z,3.40
2019-05-28T17:10:07.752Z,3.07
2019-05-28T17:12:36.742Z,2.57
2019-05-28T17:15:10.107Z,2.37
2019-05-28T17:17:57.431Z,2.23
2019-05-28T17:20:26.328Z,2.20
2019-05-28T17:22:55.523Z,2.20
2019-05-28T17:25:24.517Z,2.20
2019-05-28T17:27:53.508Z,2.47
2019-05-28T17:30:24.288Z,2.23
2019-05-28T17:32:53.441Z,2.00
2019-05-28T17:35:22.542Z,2.07
2019-05-28T17:37:51.853Z,1.80
2019-05-28T17:40:22.386Z,2.43
2019-05-28T17:42:54.538Z,2.00
2019-05-28T17:45:23.638Z,2.43
2019-05-28T17:47:52.944Z,2.10
2019-05-28T17:50:22.140Z,2.33
2019-05-28T17:52:51.855Z,2.30
2019-05-28T17:55:21.618Z,1.80
2019-05-28T17:57:50.844Z,1.90
2019-05-28T18:00:19.963Z,2.60
2019-05-28T18:02:49.086Z,1.53
2019-05-28T18:05:19.283Z,1.90
2019-05-28T18:07:48.481Z,2.90
2019-05-28T18:10:17.779Z,1.33
2019-05-28T18:12:47.079Z,1.80
2019-05-28T18:15:16.177Z,1.90
2019-05-28T18:17:45.273Z,2.40
2019-05-28T18:20:15.131Z,1.50
2019-05-28T18:22:44.101Z,1.80
2019-05-28T18:25:13.401Z,2.17
2019-05-28T18:27:42.686Z,2.87
2019-05-28T18:30:13.545Z,2.83
2019-05-28T18:32:42.720Z,3.23
2019-05-28T18:35:13.303Z,1.37
2019-05-28T18:37:42.554Z,1.67
2019-05-28T18:40:13.748Z,1.20
2019-05-28T18:42:43.210Z,1.90
2019-05-28T18:45:13.327Z,1.10
2019-05-28T18:47:42.426Z,2.00
2019-05-28T18:50:12.086Z,1.83
2019-05-28T18:52:41.436Z,1.57
2019-05-28T18:55:10.559Z,2.67
2019-05-28T18:57:40.307Z,1.63
2019-05-28T19:00:10.856Z,3.10
2019-05-28T19:02:39.875Z,2.23
2019-05-28T19:05:10.102Z,1.47
2019-05-28T19:07:40.029Z,2.73
2019-05-28T19:10:10.850Z,1.43
2019-05-28T19:12:39.976Z,1.87
2019-05-28T19:15:09.454Z,1.67
2019-05-28T19:17:38.792Z,1.27
2019-05-28T19:20:09.276Z,1.93
2019-05-28T19:22:38.553Z,1.30
2019-05-28T19:25:10.767Z,1.60
2019-05-28T19:27:39.858Z,1.40
2019-05-28T19:30:12.053Z,1.30
2019-05-28T19:32:41.323Z,2.17
2019-05-28T19:35:10.841Z,2.03
2019-05-28T19:37:41.691Z,1.30
2019-05-28T19:40:10.868Z,1.40
2019-05-28T19:42:40.165Z,3.83
2019-05-28T19:45:10.190Z,1.70
2019-05-28T19:47:40.638Z,2.00
2019-05-28T19:50:10.077Z,1.70
2019-05-28T19:52:39.020Z,1.70
2019-05-28T19:55:09.953Z,2.30
2019-05-28T19:57:39.051Z,1.73
2019-05-28T20:00:09.989Z,1.83
2019-05-28T20:02:39.303Z,1.50
2019-05-28T20:05:09.207Z,1.67
2019-05-28T20:07:38.303Z,2.90
2019-05-28T20:10:08.423Z,1.43
2019-05-28T20:12:37.521Z,1.67
2019-05-28T20:15:10.364Z,1.10
2019-05-28T20:17:39.345Z,1.77
2019-05-28T20:20:09.314Z,1.47
2019-05-28T20:22:38.239Z,1.53
2019-05-28T20:25:10.390Z,1.80
2019-05-28T20:27:39.476Z,1.40
2019-05-28T20:30:10.002Z,2.53
2019-05-28T20:32:39.101Z,1.43
2019-05-28T20:35:09.635Z,1.60
2019-05-28T20:37:38.943Z,1.33
2019-05-28T20:40:10.207Z,1.70
2019-05-28T20:42:39.382Z,2.03
2019-05-28T20:45:12.777Z,2.50
2019-05-28T20:47:41.878Z,2.03
2019-05-28T20:50:11.918Z,1.70
2019-05-28T20:52:41.301Z,1.30
2019-05-28T20:55:11.782Z,1.57
2019-05-28T20:57:40.720Z,1.90
2019-05-28T21:00:10.700Z,1.63
2019-05-28T21:02:39.610Z,1.73
2019-05-28T21:05:08.928Z,1.60
2019-05-28T21:07:37.928Z,1.77
2019-05-28T21:10:08.763Z,1.87
2019-05-28T21:12:43.991Z,3.13
2019-05-28T21:15:08.791Z,3.50
2019-05-28T21:17:37.998Z,1.73
2019-05-28T21:20:10.596Z,1.90
2019-05-28T21:22:39.978Z,1.53
2019-05-28T21:25:09.759Z,2.07
2019-05-28T21:27:38.666Z,2.57
2019-05-28T21:30:10.115Z,3.43
2019-05-28T21:32:40.534Z,2.40
2019-05-28T21:35:13.347Z,1.93
2019-05-28T21:37:45.035Z,2.50
2019-05-28T21:40:17.102Z,2.03
2019-05-28T21:43:00.243Z,2.47
2019-05-28T21:45:22.637Z,3.20
2019-05-28T21:47:52.391Z,2.13
2019-05-28T21:50:21.650Z,1.90
2019-05-28T21:52:50.970Z,2.17
2019-05-28T21:55:19.841Z,1.73
2019-05-28T21:57:48.564Z,2.90
2019-05-28T22:00:30.698Z,2.30
2019-05-28T22:03:00.442Z,2.07
2019-05-28T22:05:29.568Z,2.40
2019-05-28T22:07:59.392Z,2.40
2019-05-28T22:10:28.560Z,2.40
2019-05-28T22:12:57.781Z,2.87
2019-05-28T22:15:26.819Z,2.57
2019-05-28T22:17:56.058Z,2.60
2019-05-28T22:20:25.148Z,3.97
2019-05-28T22:22:56.518Z,3.00
2019-05-28T22:25:25.414Z,3.00
2019-05-28T22:27:54.461Z,3.10
2019-05-28T22:30:23.805Z,3.60
2019-05-28T22:32:53.160Z,3.10
2019-05-28T22:35:22.189Z,3.20
2019-05-28T22:37:50.944Z,3.07
2019-05-28T22:40:20.051Z,3.63
2019-05-28T22:42:48.882Z,3.13
2019-05-28T22:45:18.840Z,3.40
2019-05-28T22:47:47.680Z,3.23
2019-05-28T22:50:22.915Z,3.50
2019-05-28T22:52:47.515Z,3.43
2019-05-28T22:55:16.599Z,3.30
2019-05-28T22:57:45.352Z,5.47
2019-05-28T23:00:16.021Z,3.50
2019-05-28T23:02:44.913Z,3.67
2019-05-28T23:05:14.420Z,3.57
2019-05-28T23:07:43.314Z,4.07
2019-05-28T23:10:12.714Z,3.47
2019-05-28T23:12:41.533Z,6.00
2019-05-28T23:15:10.759Z,3.50
2019-05-28T23:17:39.604Z,3.70
2019-05-28T23:20:12.274Z,4.23
2019-05-28T23:22:41.177Z,3.97
2019-05-28T23:25:11.550Z,4.37
2019-05-28T23:27:40.575Z,3.57
2019-05-28T23:30:23.390Z,3.93
2019-05-28T23:32:41.816Z,3.70
2019-05-28T23:35:12.726Z,4.03
2019-05-28T23:37:41.867Z,4.43
2019-05-28T23:40:11.366Z,3.57
2019-05-28T23:42:42.133Z,4.70
2019-05-28T23:45:11.853Z,4.20
2019-05-28T23:47:40.738Z,4.17
2019-05-28T23:50:14.216Z,3.97
2019-05-28T23:52:40.761Z,6.30
2019-05-28T23:55:09.972Z,4.83
2019-05-28T23:57:39.074Z,5.80
